Time;durP1;ratioP1;P1;durP2;ratioP2;P2;SDS_P1;SDS_P2;PMS_P1;PMS_P2;Temp;Humidity;BMP_temperature;BMP_pressure;BME280_temperature;BME280_humidity;BME280_pressure;Samples;Min_cycle;Max_cycle;Signal;HPM_P1;HPM_P2
2023/01/06 00:00:04;;;;;;;82.20;34.67;;;;;;;5.15;100.00;97800.50;6217700;23;20079;-78
2023/01/06 00:02:29;;;;;;;73.70;32.97;;;;;;;5.22;100.00;97807.31;6217629;23;20087;-77
2023/01/06 00:04:55;;;;;;;73.10;31.00;;;;;;;5.23;100.00;97803.72;6243087;23;20400;-77
2023/01/06 00:07:20;;;;;;;69.60;31.58;;;;;;;5.28;100.00;97798.28;6242660;23;20004;-78
2023/01/06 00:09:46;;;;;;;63.17;26.65;;;;;;;5.42;100.00;97814.53;6243122;23;20001;-78
2023/01/06 00:12:11;;;;;;;69.72;30.00;;;;;;;5.52;100.00;97794.69;6217588;23;20562;-77
2023/01/06 00:14:37;;;;;;;64.80;27.08;;;;;;;5.62;100.00;97811.13;6242660;23;20018;-77
2023/01/06 00:17:02;;;;;;;65.53;26.52;;;;;;;5.46;100.00;97803.75;6217610;23;20103;-77
2023/01/06 00:19:28;;;;;;;55.60;23.98;;;;;;;5.61;100.00;97807.63;6217423;23;20383;-77
2023/01/06 00:21:53;;;;;;;58.17;26.92;;;;;;;5.61;100.00;97778.44;6217445;23;20003;-78
2023/01/06 00:24:19;;;;;;;64.20;27.60;;;;;;;5.67;100.00;97791.47;6217621;23;20004;-78
2023/01/06 00:26:45;;;;;;;71.57;26.80;;;;;;;5.44;100.00;97794.13;6217692;23;20038;-78
2023/01/06 00:29:10;;;;;;;56.83;26.00;;;;;;;5.34;100.00;97801.56;6217437;23;20506;-77
2023/01/06 00:31:37;;;;;;;53.28;23.77;;;;;;;5.34;100.00;97806.00;6242417;23;20011;-78
2023/01/06 00:34:02;;;;;;;50.28;22.50;;;;;;;5.20;100.00;97797.69;6217492;23;20198;-78
2023/01/06 00:36:29;;;;;;;52.65;21.55;;;;;;;5.36;100.00;97818.28;6217342;23;20035;-78
2023/01/06 00:38:55;;;;;;;44.92;21.42;;;;;;;5.30;100.00;97825.59;6217420;23;20004;-77
2023/01/06 00:44:05;;;;;;;51.45;19.67;;;;;;;5.28;100.00;97801.78;6243258;23;20470;-82
2023/01/06 00:46:33;;;;;;;49.70;22.17;;;;;;;5.18;100.00;97805.69;6242584;23;20008;-82
2023/01/06 00:49:00;;;;;;;46.45;21.45;;;;;;;5.06;100.00;97816.75;6242467;23;20369;-82
2023/01/06 00:51:26;;;;;;;51.17;22.73;;;;;;;4.95;100.00;97831.31;6217208;23;20003;-81
2023/01/06 00:53:55;;;;;;;53.28;21.55;;;;;;;5.12;100.00;97821.81;6242540;23;20004;-82
2023/01/06 00:56:21;;;;;;;53.55;21.67;;;;;;;5.20;100.00;97824.22;6217374;23;20017;-82
2023/01/06 00:58:46;;;;;;;51.67;21.52;;;;;;;5.20;100.00;97819.75;6217342;23;20432;-81
2023/01/06 01:01:17;;;;;;;41.90;21.08;;;;;;;5.18;100.00;97818.09;6217262;23;20008;-83
2023/01/06 01:03:43;;;;;;;53.88;21.20;;;;;;;5.22;100.00;97802.03;6217084;23;20091;-82
2023/01/06 01:06:09;;;;;;;48.17;20.15;;;;;;;5.26;100.00;97781.56;6217233;23;20093;-81
2023/01/06 01:08:35;;;;;;;46.85;19.38;;;;;;;5.37;100.00;97780.25;6217032;23;20004;-82
2023/01/06 01:11:09;;;;;;;41.00;18.90;;;;;;;5.46;100.00;97790.50;6217013;23;20014;-81
2023/01/06 01:13:35;;;;;;;46.45;18.98;;;;;;;5.53;100.00;97777.88;6216975;23;20004;-81
2023/01/06 01:16:05;;;;;;;38.97;17.40;;;;;;;5.60;100.00;97779.34;6216906;23;20636;-81
2023/01/06 01:18:31;;;;;;;37.78;17.45;;;;;;;5.64;100.00;97765.03;6217000;23;20073;-82
2023/01/06 01:20:56;;;;;;;37.95;17.45;;;;;;;5.63;100.00;97767.78;6241838;23;20031;-82
2023/01/06 01:23:22;;;;;;;45.78;19.23;;;;;;;5.70;100.00;97778.06;6217239;23;20562;-81
2023/01/06 01:25:47;;;;;;;43.28;17.27;;;;;;;5.69;100.00;97781.63;6242140;23;20507;-81
2023/01/06 01:28:13;;;;;;;38.80;16.80;;;;;;;5.78;100.00;97775.97;6242621;23;20018;-82
2023/01/06 01:30:38;;;;;;;55.15;22.80;;;;;;;5.76;100.00;97772.53;6216446;23;20038;-82
2023/01/06 01:33:04;;;;;;;41.75;19.55;;;;;;;5.81;100.00;97770.56;6217121;23;20042;-81
2023/01/06 01:35:29;;;;;;;47.72;20.98;;;;;;;5.84;100.00;97775.75;6216851;23;20008;-82
2023/01/06 01:37:55;;;;;;;41.28;18.95;;;;;;;5.84;100.00;97785.50;6216869;23;20399;-82
2023/01/06 01:40:20;;;;;;;45.40;19.08;;;;;;;5.84;100.00;97789.03;6216896;23;20000;-82
2023/01/06 01:42:46;;;;;;;38.63;17.85;;;;;;;5.94;100.00;97797.50;6216953;23;20008;-82
2023/01/06 01:45:24;;;;;;;39.83;18.27;;;;;;;5.97;100.00;97790.28;6216616;23;20375;-81
2023/01/06 01:48:02;;;;;;;36.45;17.25;;;;;;;6.04;100.00;97787.38;6216630;23;20376;-82
2023/01/06 01:50:32;;;;;;;37.78;17.08;;;;;;;6.09;100.00;97786.25;6217199;23;20011;-82
2023/01/06 01:53:03;;;;;;;42.88;17.27;;;;;;;6.10;100.00;97787.13;6243799;23;20011;-82
2023/01/06 01:55:30;;;;;;;44.38;20.60;;;;;;;6.04;100.00;97761.69;6244308;23;20347;-82
2023/01/06 01:58:18;;;;;;;46.22;21.42;;;;;;;6.07;100.00;97781.94;6219215;23;20079;-82
2023/01/06 02:00:44;;;;;;;43.53;20.55;;;;;;;6.09;100.00;97774.81;6218731;23;20110;-82
2023/01/06 02:03:11;;;;;;;44.00;19.77;;;;;;;5.91;100.00;97771.06;6244175;23;20439;-82
2023/01/06 02:05:39;;;;;;;44.75;20.85;;;;;;;6.07;100.00;97808.50;6219060;23;20138;-82
2023/01/06 02:08:14;;;;;;;45.10;19.70;;;;;;;5.99;100.00;97791.09;6218744;23;20008;-80
2023/01/06 02:10:39;;;;;;;46.83;19.70;;;;;;;6.04;100.00;97790.03;6218629;23;20066;-81
2023/01/06 02:13:05;;;;;;;42.90;19.52;;;;;;;5.95;100.00;97789.50;6218611;23;20012;-81
2023/01/06 02:15:31;;;;;;;38.75;18.88;;;;;;;5.99;100.00;97800.84;6218544;23;20047;-81
2023/01/06 02:18:06;;;;;;;38.38;18.58;;;;;;;6.07;100.00;97793.44;6218719;23;20083;-82
2023/01/06 02:21:08;;;;;;;49.50;20.30;;;;;;;6.04;100.00;97788.25;6218668;23;20031;-82
2023/01/06 02:23:52;;;;;;;52.55;20.98;;;;;;;6.08;100.00;97811.09;6218544;23;20078;-81
2023/01/06 02:26:45;;;;;;;63.88;25.13;;;;;;;6.13;100.00;97810.91;6243672;23;20008;-82
2023/01/06 02:29:31;;;;;;;53.17;23.85;;;;;;;6.04;100.00;97828.06;6244869;23;20004;-82
2023/01/06 02:32:11;;;;;;;52.50;23.83;;;;;;;6.08;100.00;97834.13;6218507;23;20004;-82
2023/01/06 02:35:00;;;;;;;49.17;20.98;;;;;;;5.89;100.00;97841.94;6243765;23;20015;-81
2023/01/06 02:38:03;;;;;;;41.72;18.08;;;;;;;5.90;100.00;97855.19;6243551;23;20008;-81
2023/01/06 02:41:01;;;;;;;39.83;16.65;;;;;;;5.85;100.00;97848.25;6243961;23;20509;-82
2023/01/06 02:43:29;;;;;;;38.88;18.25;;;;;;;5.82;100.00;97859.00;6243759;23;20012;-81
2023/01/06 02:45:58;;;;;;;49.85;19.77;;;;;;;5.74;100.00;97854.00;6243608;23;20004;-81
2023/01/06 02:48:30;;;;;;;40.53;18.70;;;;;;;5.65;100.00;97843.72;6218413;23;20456;-85
2023/01/06 02:51:03;;;;;;;44.83;18.23;;;;;;;5.57;100.00;97834.34;6244598;23;20035;-80
2023/01/06 02:53:34;;;;;;;44.00;18.35;;;;;;;5.54;100.00;97845.91;6245150;23;20004;-81
2023/01/06 02:56:00;;;;;;;46.40;19.73;;;;;;;5.51;100.00;97840.72;6243707;23;20007;-83
2023/01/06 02:58:28;;;;;;;48.55;17.42;;;;;;;5.59;100.00;97853.69;6218131;23;20012;-82
2023/01/06 03:01:07;;;;;;;34.67;17.65;;;;;;;5.53;100.00;97848.63;6218234;23;20000;-82
2023/01/06 03:03:34;;;;;;;32.55;15.27;;;;;;;5.65;100.00;97857.00;6218306;23;20031;-82
2023/01/06 03:06:15;;;;;;;35.60;15.93;;;;;;;5.63;100.00;97836.75;6244154;23;20004;-82
2023/01/06 03:08:43;;;;;;;33.53;14.27;;;;;;;5.68;100.00;97842.75;6218160;23;20091;-81
2023/01/06 03:11:08;;;;;;;32.90;15.13;;;;;;;5.75;100.00;97834.47;6218149;23;20101;-82
2023/01/06 03:13:39;;;;;;;38.30;15.38;;;;;;;5.90;100.00;97841.03;6243269;23;20000;-81
2023/01/06 03:16:05;;;;;;;36.13;16.17;;;;;;;5.92;100.00;97836.53;6243453;23;20012;-80
2023/01/06 03:18:53;;;;;;;26.38;13.05;;;;;;;5.95;100.00;97820.47;6218176;23;20384;-83
2023/01/06 03:21:25;;;;;;;21.80;8.93;;;;;;;6.07;100.00;97803.19;6243316;23;20356;-83
2023/01/06 03:23:51;;;;;;;17.83;8.70;;;;;;;6.43;100.00;97836.22;6243315;23;20011;-83
2023/01/06 03:26:17;;;;;;;14.98;7.97;;;;;;;6.37;100.00;97807.25;6243379;23;20004;-81
2023/01/06 03:28:43;;;;;;;17.35;8.43;;;;;;;6.52;100.00;97814.63;6218203;23;20462;-82
2023/01/06 03:31:44;;;;;;;17.35;8.32;;;;;;;6.50;100.00;97808.47;6218129;23;20043;-82
2023/01/06 03:34:20;;;;;;;16.80;8.77;;;;;;;6.54;100.00;97804.78;6241476;23;20004;-82
2023/01/06 03:37:18;;;;;;;18.75;8.52;;;;;;;6.59;100.00;97797.47;6243087;23;20083;-81
2023/01/06 03:40:05;;;;;;;17.02;8.55;;;;;;;6.61;100.00;97790.31;6231293;22;20000;-82
2023/01/06 03:45:38;;;;;;;18.92;9.52;;;;;;;6.50;100.00;97784.56;6243398;23;20043;-82
2023/01/06 03:48:37;;;;;;;18.50;8.88;;;;;;;6.43;100.00;97796.38;6243004;23;20141;-82
2023/01/06 03:51:06;;;;;;;22.85;10.43;;;;;;;6.22;100.00;97805.22;6243288;23;20444;-84
2023/01/06 03:53:43;;;;;;;21.77;9.82;;;;;;;6.12;100.00;97806.53;6243369;23;20033;-81
2023/01/06 03:56:18;;;;;;;22.08;9.75;;;;;;;5.95;100.00;97804.53;6217877;23;20069;-83
2023/01/06 03:58:45;;;;;;;22.50;9.60;;;;;;;5.88;100.00;97819.84;6243038;23;20007;-82
2023/01/06 04:01:11;;;;;;;20.05;9.93;;;;;;;5.75;100.00;97817.72;6243141;23;20058;-82
2023/01/06 04:03:37;;;;;;;32.60;15.00;;;;;;;5.61;100.00;97831.50;6243199;23;20000;-83
2023/01/06 04:06:02;;;;;;;72.43;35.50;;;;;;;5.52;100.00;97846.88;6218181;23;20004;-83
2023/01/06 04:08:28;;;;;;;39.97;16.70;;;;;;;5.44;100.00;97855.16;6217329;23;20000;-82
2023/01/06 04:10:54;;;;;;;29.60;13.13;;;;;;;5.40;100.00;97858.81;6217686;23;20038;-83
2023/01/06 04:13:19;;;;;;;31.55;16.02;;;;;;;5.41;100.00;97871.16;6217806;23;20005;-81
2023/01/06 04:15:45;;;;;;;30.75;14.15;;;;;;;5.39;100.00;97873.00;6217053;23;20329;-81
2023/01/06 04:18:10;;;;;;;34.03;13.85;;;;;;;5.27;100.00;97873.44;6217422;23;20406;-82
2023/01/06 04:20:36;;;;;;;64.90;23.55;;;;;;;5.22;100.00;97870.09;6242852;23;19996;-82
2023/01/06 04:23:01;;;;;;;46.63;19.35;;;;;;;5.40;100.00;97893.31;6217615;23;20329;-82
2023/01/06 04:25:27;;;;;;;34.85;14.43;;;;;;;5.41;100.00;97890.56;6217816;23;20085;-83
2023/01/06 04:27:53;;;;;;;43.38;16.90;;;;;;;5.50;100.00;97896.50;6217618;23;20079;-82
2023/01/06 04:30:19;;;;;;;58.90;21.77;;;;;;;5.58;100.00;97905.91;6243190;23;20008;-83
2023/01/06 04:32:47;;;;;;;58.47;20.80;;;;;;;5.62;100.00;97906.66;6217717;23;20008;-84
2023/01/06 04:35:13;;;;;;;43.78;17.42;;;;;;;5.63;100.00;97914.53;6218830;23;20004;-82
2023/01/06 04:37:39;;;;;;;42.63;17.75;;;;;;;5.67;100.00;97905.56;6235355;23;20030;-83
2023/01/06 04:40:06;;;;;;;47.20;18.90;;;;;;;5.70;100.00;97912.53;6217488;23;20083;-82
2023/01/06 04:43:03;;;;;;;38.85;16.17;;;;;;;5.68;100.00;97904.66;6217694;23;20082;-82
2023/01/06 04:45:18;;;;;;;52.42;19.67;;;;;;;5.85;100.00;97928.78;6242593;23;20004;-82
2023/01/06 04:47:43;;;;;;;47.03;18.13;;;;;;;5.89;100.00;97927.75;6242233;23;20024;-81
2023/01/06 04:50:09;;;;;;;55.30;20.08;;;;;;;5.88;100.00;97912.75;6217582;23;20023;-82
2023/01/06 04:52:35;;;;;;;39.75;15.25;;;;;;;5.99;100.00;97913.22;6217321;23;20030;-82
2023/01/06 04:55:01;;;;;;;47.80;16.92;;;;;;;5.98;100.00;97906.19;6242054;23;20004;-82
2023/01/06 04:57:26;;;;;;;64.78;21.15;;;;;;;5.97;100.00;97903.56;6242503;23;20115;-81
2023/01/06 04:59:52;;;;;;;54.45;21.83;;;;;;;5.81;100.00;97897.97;6216949;23;20455;-82
2023/01/06 05:02:17;;;;;;;47.22;20.23;;;;;;;5.70;100.00;97889.53;6242559;23;20007;-82
2023/01/06 05:04:43;;;;;;;15.40;7.53;;;;;;;5.69;100.00;97903.69;6217128;23;20008;-81
2023/01/06 05:07:08;;;;;;;12.05;6.00;;;;;;;6.13;100.00;97910.03;6217252;23;20004;-78
2023/01/06 05:09:34;;;;;;;11.57;5.15;;;;;;;6.58;100.00;97902.06;6243582;23;20475;-83
2023/01/06 05:11:59;;;;;;;10.80;4.50;;;;;;;6.92;100.00;97902.38;6217019;23;20440;-82
2023/01/06 05:14:25;;;;;;;8.07;4.40;;;;;;;7.00;100.00;97881.66;6217260;23;20360;-81
2023/01/06 05:16:51;;;;;;;8.35;4.18;;;;;;;7.25;100.00;97877.94;6242233;23;20007;-83
2023/01/06 05:19:16;;;;;;;10.63;5.20;;;;;;;7.60;100.00;97882.56;6217057;23;20034;-82
2023/01/06 05:21:42;;;;;;;10.93;5.97;;;;;;;7.86;100.00;97878.75;6217050;23;20067;-82
2023/01/06 05:24:08;;;;;;;7.80;4.25;;;;;;;7.97;100.00;97863.97;6216715;23;20103;-82
2023/01/06 05:26:34;;;;;;;8.02;4.28;;;;;;;8.06;100.00;97862.69;6217431;23;20012;-82
2023/01/06 05:28:59;;;;;;;5.13;2.85;;;;;;;8.23;100.00;97864.56;6244050;23;20026;-82
2023/01/06 05:31:25;;;;;;;6.28;3.53;;;;;;;8.65;100.00;97878.50;6239979;23;20050;-79
2023/01/06 05:33:51;;;;;;;9.65;4.63;;;;;;;8.78;100.00;97868.97;6215511;23;20019;-81
2023/01/06 05:36:17;;;;;;;7.68;4.07;;;;;;;8.87;98.12;97876.53;6214802;23;20012;-80
2023/01/06 05:38:43;;;;;;;8.07;3.78;;;;;;;8.76;98.93;97873.53;6214394;23;20008;-82
2023/01/06 05:41:09;;;;;;;10.80;4.63;;;;;;;8.67;98.65;97871.31;6214148;23;20016;-80
2023/01/06 05:43:35;;;;;;;12.35;4.38;;;;;;;8.60;98.75;97867.22;6214199;23;20011;-82
2023/01/06 05:46:06;;;;;;;10.77;5.15;;;;;;;8.66;98.41;97875.78;6214238;23;20011;-81
2023/01/06 05:48:31;;;;;;;6.47;4.07;;;;;;;8.76;96.88;97876.19;6216115;23;20035;-82
2023/01/06 05:51:04;;;;;;;7.85;4.20;;;;;;;8.70;97.17;97861.34;6214889;23;20008;-82
2023/01/06 05:53:34;;;;;;;7.30;3.90;;;;;;;8.76;97.03;97870.00;6241219;23;20004;-83
2023/01/06 05:56:04;;;;;;;10.60;4.50;;;;;;;8.80;96.98;97861.75;6241241;23;20436;-83
2023/01/06 05:58:31;;;;;;;13.15;4.97;;;;;;;8.79;96.30;97846.72;6216540;23;20458;-82
2023/01/06 06:00:57;;;;;;;13.27;4.95;;;;;;;8.74;95.97;97827.38;6242052;23;20073;-81
2023/01/06 06:03:23;;;;;;;12.98;4.75;;;;;;;8.81;95.94;97855.50;6216945;23;20456;-81
2023/01/06 06:05:48;;;;;;;8.63;3.80;;;;;;;8.78;96.35;97852.09;6216588;23;20459;-81
2023/01/06 06:08:14;;;;;;;12.77;4.03;;;;;;;8.84;95.55;97860.66;6241960;23;20062;-81
2023/01/06 06:10:40;;;;;;;6.97;3.72;;;;;;;8.86;95.63;97858.78;6242534;23;20073;-80
2023/01/06 06:13:05;;;;;;;9.23;3.83;;;;;;;9.00;94.73;97869.63;6241566;23;20000;-83
2023/01/06 06:15:31;;;;;;;9.00;4.43;;;;;;;9.01;94.31;97868.69;6242025;23;20490;-82
2023/01/06 06:17:56;;;;;;;16.35;6.15;;;;;;;9.13;92.90;97856.53;6216845;23;20009;-80
2023/01/06 06:20:22;;;;;;;10.98;5.20;;;;;;;9.19;92.68;97867.78;6218881;23;20007;-81
2023/01/06 06:22:47;;;;;;;12.77;5.97;;;;;;;9.08;93.59;97878.09;6216796;23;20047;-82
2023/01/06 06:25:13;;;;;;;9.80;4.05;;;;;;;9.09;92.18;97863.84;6241847;23;20003;-81
2023/01/06 06:27:39;;;;;;;13.45;4.93;;;;;;;9.16;90.91;97859.06;6217142;23;20010;-82
2023/01/06 06:30:06;;;;;;;15.68;4.63;;;;;;;9.32;90.51;97880.47;6241890;23;20062;-82
2023/01/06 06:32:37;;;;;;;8.45;4.28;;;;;;;9.26;90.41;97874.50;6216744;23;20008;-82
2023/01/06 06:35:03;;;;;;;8.88;4.20;;;;;;;9.27;90.07;97873.56;6242233;23;20587;-81
2023/01/06 06:37:28;;;;;;;12.43;4.50;;;;;;;9.38;90.01;97870.34;6217035;23;20015;-81
2023/01/06 06:39:54;;;;;;;8.73;3.88;;;;;;;9.41;88.73;97877.34;6245369;23;20138;-83
2023/01/06 06:42:19;;;;;;;10.13;4.80;;;;;;;9.41;88.40;97886.22;6218623;23;20138;-81
2023/01/06 06:44:45;;;;;;;10.70;5.75;;;;;;;9.45;88.64;97870.88;6220339;23;20000;-80
2023/01/06 06:47:11;;;;;;;9.60;4.53;;;;;;;9.68;87.74;97879.41;6218544;23;20016;-79
2023/01/06 06:49:36;;;;;;;10.40;4.32;;;;;;;10.65;82.69;97894.56;6218574;23;20038;-80
2023/01/06 06:52:02;;;;;;;8.60;4.57;;;;;;;11.87;73.45;97884.56;6218776;23;20016;-77
2023/01/06 06:54:28;;;;;;;12.38;4.20;;;;;;;12.75;68.49;97878.94;6218403;23;20008;-80
2023/01/06 06:56:53;;;;;;;6.95;3.75;;;;;;;13.74;61.38;97875.81;6218847;23;20024;-79
2023/01/06 06:59:19;;;;;;;11.48;4.00;;;;;;;14.38;58.47;97861.38;6218877;23;20077;-79
2023/01/06 07:01:44;;;;;;;6.10;3.47;;;;;;;15.03;55.70;97859.25;6218714;23;20008;-80
2023/01/06 07:04:10;;;;;;;6.05;3.95;;;;;;;15.00;54.85;97853.22;6218697;23;20004;-80
2023/01/06 07:06:36;;;;;;;7.18;3.95;;;;;;;15.35;53.21;97840.63;6218656;23;20011;-80
2023/01/06 07:09:01;;;;;;;7.28;4.28;;;;;;;15.77;52.25;97838.31;6218578;23;20449;-80
2023/01/06 07:11:27;;;;;;;14.35;6.93;;;;;;;16.28;50.28;97853.94;6244014;23;20439;-79
2023/01/06 07:13:52;;;;;;;12.00;6.70;;;;;;;16.77;49.06;97831.94;6218608;23;20432;-79
2023/01/06 07:16:21;;;;;;;10.93;4.97;;;;;;;15.77;50.01;97827.53;6218502;23;20467;-78
2023/01/06 07:18:47;;;;;;;9.18;4.15;;;;;;;16.21;50.11;97852.72;6219561;23;20004;-79
2023/01/06 07:21:13;;;;;;;12.13;4.32;;;;;;;16.80;49.02;97864.13;6218342;23;20039;-79
2023/01/06 07:23:41;;;;;;;6.47;4.00;;;;;;;16.42;48.95;97855.56;6218354;23;20093;-81
2023/01/06 07:26:08;;;;;;;6.93;4.10;;;;;;;16.95;47.63;97850.34;6218436;23;20447;-80
2023/01/06 07:28:33;;;;;;;13.57;3.90;;;;;;;17.13;47.12;97867.75;6218373;23;20008;-78
2023/01/06 07:31:00;;;;;;;21.42;4.68;;;;;;;16.48;47.81;97849.66;6218289;23;20008;-79
2023/01/06 07:33:25;;;;;;;6.88;3.95;;;;;;;15.46;50.03;97853.28;6243452;23;20026;-79
2023/01/06 07:35:52;;;;;;;13.07;4.60;;;;;;;14.57;51.86;97836.69;6243775;23;20008;-80
2023/01/06 07:38:18;;;;;;;7.90;4.57;;;;;;;14.05;54.45;97853.88;6218187;23;20008;-79
2023/01/06 07:40:43;;;;;;;12.88;4.93;;;;;;;13.62;55.54;97854.31;6218156;23;20462;-79
2023/01/06 07:43:10;;;;;;;9.25;4.90;;;;;;;13.28;56.97;97853.94;6218259;23;20004;-79
2023/01/06 07:45:36;;;;;;;11.88;5.97;;;;;;;14.32;56.17;97904.84;6243452;23;20004;-79
2023/01/06 07:48:02;;;;;;;12.85;5.72;;;;;;;15.64;51.69;97892.34;6217862;23;20540;-80
2023/01/06 07:50:28;;;;;;;9.65;5.57;;;;;;;16.54;49.48;97892.41;6217477;23;20012;-80
2023/01/06 07:52:57;;;;;;;9.15;5.47;;;;;;;17.05;47.75;97878.31;6243734;23;20412;-80
2023/01/06 07:55:22;;;;;;;10.60;4.90;;;;;;;17.50;46.02;97874.50;6218062;23;20020;-79
2023/01/06 07:57:48;;;;;;;10.27;4.75;;;;;;;18.13;44.96;97876.22;6218118;23;20007;-80
2023/01/06 08:00:14;;;;;;;8.45;5.18;;;;;;;18.08;44.45;97866.81;6218141;23;20329;-79
2023/01/06 08:02:39;;;;;;;13.90;5.90;;;;;;;18.23;43.83;97863.63;6243358;23;20000;-79
2023/01/06 08:05:05;;;;;;;11.00;4.75;;;;;;;18.37;43.30;97873.22;6243268;23;20039;-80
2023/01/06 08:07:31;;;;;;;13.57;5.20;;;;;;;18.35;43.49;97865.25;6243467;23;20008;-79
2023/01/06 08:09:56;;;;;;;10.27;3.90;;;;;;;18.46;43.30;97872.41;6217970;23;20027;-79
2023/01/06 08:12:22;;;;;;;7.03;3.47;;;;;;;18.47;42.46;97859.72;6217989;23;20512;-80
2023/01/06 08:14:47;;;;;;;3.90;3.08;;;;;;;18.40;43.22;97862.09;6243195;23;20004;-78
2023/01/06 08:17:13;;;;;;;7.32;3.28;;;;;;;18.79;42.12;97866.75;6217788;23;20153;-79
2023/01/06 08:19:41;;;;;;;6.47;3.15;;;;;;;19.21;41.44;97861.09;6217510;23;20457;-79
2023/01/06 08:22:07;;;;;;;4.95;2.90;;;;;;;19.50;40.27;97859.31;6243349;23;20000;-78
2023/01/06 08:24:33;;;;;;;10.57;4.38;;;;;;;19.08;41.07;97858.66;6243178;23;20010;-80
2023/01/06 08:26:58;;;;;;;10.82;4.32;;;;;;;19.43;41.06;97867.16;6243297;23;20467;-79
2023/01/06 08:29:24;;;;;;;8.52;3.78;;;;;;;19.92;39.59;97879.72;6217688;23;20046;-80
2023/01/06 08:31:50;;;;;;;7.00;3.85;;;;;;;19.97;39.62;97855.69;6242992;23;20000;-79
2023/01/06 08:34:16;;;;;;;8.10;3.30;;;;;;;20.59;38.94;97872.41;6217510;23;20070;-79
2023/01/06 08:36:43;;;;;;;7.80;4.45;;;;;;;21.04;37.64;97863.31;6217382;23;20039;-78
2023/01/06 08:39:09;;;;;;;10.77;3.78;;;;;;;21.22;37.59;97852.50;6242667;23;20036;-77
2023/01/06 08:41:35;;;;;;;6.90;3.63;;;;;;;21.39;36.85;97861.69;6242455;23;20004;-78
2023/01/06 08:44:00;;;;;;;8.48;3.65;;;;;;;21.73;36.39;97859.97;6244091;22;20004;-79
2023/01/06 08:46:26;;;;;;;8.60;3.25;;;;;;;20.90;36.94;97836.63;6244134;23;20054;-78
2023/01/06 08:48:52;;;;;;;8.13;4.00;;;;;;;21.15;37.21;97856.84;6216698;23;20128;-77
2023/01/06 08:51:22;;;;;;;8.60;4.05;;;;;;;20.97;37.19;97845.03;6242979;23;20005;-78
2023/01/06 08:53:48;;;;;;;8.07;3.85;;;;;;;21.20;36.72;97846.34;6217850;23;20044;-79
2023/01/06 08:56:16;;;;;;;5.80;3.35;;;;;;;21.18;36.61;97858.38;6217643;23;20004;-78
2023/01/06 08:58:44;;;;;;;8.18;4.70;;;;;;;20.94;36.82;97840.75;6217586;23;20028;-78
2023/01/06 09:01:18;;;;;;;5.93;3.38;;;;;;;21.31;36.59;97845.28;6243065;23;20471;-80
2023/01/06 09:03:44;;;;;;;10.80;4.63;;;;;;;21.99;36.22;97866.38;6217919;23;20443;-79
2023/01/06 09:06:09;;;;;;;12.35;4.70;;;;;;;23.07;34.46;97863.09;6243136;23;20011;-79
2023/01/06 09:08:36;;;;;;;6.35;3.80;;;;;;;22.66;34.64;97845.69;6243504;23;20447;-78
2023/01/06 09:11:09;;;;;;;8.23;4.13;;;;;;;23.35;34.09;97844.59;6217357;23;20008;-77
2023/01/06 09:13:35;;;;;;;7.65;3.58;;;;;;;22.65;34.45;97824.88;6242302;23;20032;-78
2023/01/06 09:16:07;;;;;;;6.57;2.75;;;;;;;23.15;33.52;97822.19;6217324;23;20065;-78
2023/01/06 09:18:33;;;;;;;5.95;2.88;;;;;;;23.67;33.11;97829.13;6217433;23;20502;-78
2023/01/06 09:20:58;;;;;;;6.80;4.18;;;;;;;23.74;32.72;97821.09;6216759;23;20004;-79
2023/01/06 09:23:24;;;;;;;6.50;3.78;;;;;;;23.93;32.42;97817.19;6216898;23;20007;-79
2023/01/06 09:25:50;;;;;;;9.70;4.65;;;;;;;24.07;32.03;97811.84;6216733;23;20015;-78
2023/01/06 09:28:15;;;;;;;8.35;3.88;;;;;;;25.06;31.09;97833.34;6216766;23;20356;-79
2023/01/06 09:30:41;;;;;;;5.82;3.58;;;;;;;24.70;31.18;97811.06;6243484;22;20004;-78
2023/01/06 09:33:06;;;;;;;4.95;3.30;;;;;;;24.68;30.73;97807.63;6243675;22;20000;-78
2023/01/06 09:35:32;;;;;;;8.43;2.75;;;;;;;24.40;31.13;97800.88;6217072;23;20042;-77
2023/01/06 09:37:58;;;;;;;9.15;4.05;;;;;;;25.47;30.03;97815.59;6242033;23;20000;-80
2023/01/06 09:40:30;;;;;;;7.00;3.20;;;;;;;26.06;28.96;97802.16;6242741;23;20004;-80
2023/01/06 09:43:16;;;;;;;6.68;3.45;;;;;;;24.83;29.83;97770.31;6242201;23;20138;-79
2023/01/06 09:45:51;;;;;;;5.72;3.40;;;;;;;24.73;30.11;97772.38;6196012;23;20459;-80
2023/01/06 09:48:23;;;;;;;6.68;3.50;;;;;;;24.49;30.54;97754.16;6241811;23;20122;-81
2023/01/06 09:50:56;;;;;;;4.82;3.20;;;;;;;24.47;30.92;97755.38;6216692;23;20039;-81
2023/01/06 09:53:23;;;;;;;7.90;4.55;;;;;;;25.08;30.11;97760.94;6242282;23;20086;-81
2023/01/06 09:55:56;;;;;;;6.18;3.17;;;;;;;24.82;30.24;97733.03;6242180;23;20003;-82
2023/01/06 09:58:24;;;;;;;7.60;3.25;;;;;;;25.23;29.64;97747.31;6242423;23;20058;-81
2023/01/06 10:00:52;;;;;;;7.63;3.50;;;;;;;25.18;29.85;97753.34;6243764;22;20053;-81
2023/01/06 10:03:23;;;;;;;4.95;2.83;;;;;;;24.71;29.60;97726.03;6242409;23;20004;-80
2023/01/06 10:05:51;;;;;;;6.93;3.20;;;;;;;24.70;29.92;97735.25;6216553;23;20091;-82
2023/01/06 10:08:23;;;;;;;4.25;2.63;;;;;;;24.72;29.14;97721.41;6241836;23;20015;-81
2023/01/06 10:11:07;;;;;;;22.02;2.95;;;;;;;24.01;29.85;97713.28;6243300;22;20061;-81
2023/01/06 10:13:55;;;;;;;4.47;2.15;;;;;;;24.15;29.90;97713.44;6244974;23;20007;-78
2023/01/06 10:16:36;;;;;;;22.45;12.07;;;;;;;24.82;29.48;97722.09;6243764;23;20027;-80
2023/01/06 10:19:13;;;;;;;6.47;2.80;;;;;;;24.63;29.29;97703.34;6243874;23;20007;-80
2023/01/06 10:21:54;;;;;;;2.83;1.70;;;;;;;23.97;29.63;97687.31;6243833;23;20004;-81
2023/01/06 10:24:22;;;;;;;2.67;2.05;;;;;;;24.28;29.05;97697.34;6218557;23;20379;-80
2023/01/06 10:26:52;;;;;;;3.88;2.00;;;;;;;25.52;28.07;97717.34;6245581;22;20748;-81
2023/01/06 10:29:19;;;;;;;9.55;3.88;;;;;;;25.86;27.64;97701.25;6218261;23;20008;-81
2023/01/06 10:31:46;;;;;;;7.43;3.28;;;;;;;25.27;28.63;97682.91;6218471;23;20019;-80
2023/01/06 10:34:32;;;;;;;9.30;4.18;;;;;;;25.53;28.84;97683.44;6243827;23;20467;-82
2023/01/06 10:37:16;;;;;;;7.35;4.00;;;;;;;26.00;28.19;97682.25;6217763;23;20452;-81
2023/01/06 10:39:43;;;;;;;8.60;4.15;;;;;;;26.37;27.67;97694.00;6245507;22;19996;-81
2023/01/06 10:45:13;;;;;;;4.03;2.00;;;;;;;24.31;29.34;97637.84;6244847;23;20035;-81
2023/01/06 10:47:40;;;;;;;4.88;2.88;;;;;;;25.32;28.18;97662.16;6217794;23;20067;-81
2023/01/06 10:50:06;;;;;;;4.88;3.10;;;;;;;25.20;28.45;97649.94;6243902;23;20012;-82
2023/01/06 10:52:33;;;;;;;6.05;2.35;;;;;;;25.16;28.63;97643.13;6243570;23;20053;-80
2023/01/06 10:55:03;;;;;;;3.75;2.53;;;;;;;25.26;28.64;97643.72;6243738;23;20087;-82
2023/01/06 10:57:33;;;;;;;5.43;2.58;;;;;;;24.88;29.23;97633.78;6243768;23;20031;-82
2023/01/06 11:00:23;;;;;;;5.60;2.20;;;;;;;25.05;28.91;97634.50;6243653;23;20146;-82
2023/01/06 11:02:51;;;;;;;17.33;2.78;;;;;;;25.90;28.20;97657.00;6243228;23;20340;-82
2023/01/06 11:05:22;;;;;;;7.28;2.58;;;;;;;26.04;27.30;97650.66;6243281;23;20455;-83
2023/01/06 11:07:52;;;;;;;8.23;3.20;;;;;;;25.94;27.70;97639.97;6243429;23;20062;-82
2023/01/06 11:10:28;;;;;;;3.25;2.50;;;;;;;25.94;27.85;97639.13;6243177;23;20359;-81
2023/01/06 11:12:56;;;;;;;4.30;2.30;;;;;;;25.67;28.14;97629.66;6218415;23;20355;-82
2023/01/06 11:15:30;;;;;;;5.82;2.83;;;;;;;25.41;28.29;97610.88;6218015;23;20008;-82
2023/01/06 11:17:56;;;;;;;3.35;2.30;;;;;;;25.89;27.65;97617.78;6243508;23;20000;-82
2023/01/06 11:20:27;;;;;;;6.28;2.53;;;;;;;25.62;28.33;97615.69;6243622;23;20027;-81
2023/01/06 11:22:53;;;;;;;3.75;2.13;;;;;;;25.44;28.30;97601.47;6243132;23;20011;-84
2023/01/06 11:25:28;;;;;;;3.55;2.55;;;;;;;25.43;28.32;97605.22;6243533;23;20004;-83
2023/01/06 11:28:12;;;;;;;4.03;2.60;;;;;;;25.09;28.55;97598.34;6243532;23;20008;-82
2023/01/06 11:30:52;;;;;;;17.80;2.85;;;;;;;24.12;30.05;97578.97;6244771;23;20351;-81
2023/01/06 11:33:20;;;;;;;6.10;2.10;;;;;;;24.17;29.66;97585.66;6243080;23;20008;-82
2023/01/06 11:35:46;;;;;;;5.68;2.50;;;;;;;24.46;29.35;97584.94;6217374;23;20529;-82
2023/01/06 11:38:13;;;;;;;3.75;2.53;;;;;;;25.16;28.41;97599.28;6243343;23;20000;-82
2023/01/06 11:40:39;;;;;;;2.80;2.20;;;;;;;24.45;28.59;97561.38;6217338;23;20039;-82
2023/01/06 11:43:12;;;;;;;4.45;2.10;;;;;;;24.82;28.48;97577.03;6217576;23;20359;-81